sensor_id;sensor_type;location;lat;lon;timestamp;pressure;altitude;pressure_sealevel;temperature;humidity
21877;BME280;11103;43.788;23.710;2023-02-28T00:00:10;148095.97;;;6.83;100.00
21877;BME280;11103;43.788;23.710;2023-02-28T00:02:37;148078.13;;;6.76;100.00
21877;BME280;11103;43.788;23.710;2023-02-28T00:05:03;148024.53;;;6.55;100.00
21877;BME280;11103;43.788;23.710;2023-02-28T00:07:30;148066.63;;;6.72;100.00
21877;BME280;11103;43.788;23.710;2023-02-28T00:09:55;148051.34;;;6.66;100.00
21877;BME280;11103;43.788;23.710;2023-02-28T00:12:21;147999.03;;;6.45;100.00
21877;BME280;11103;43.788;23.710;2023-02-28T00:14:47;147942.94;;;6.23;100.00
21877;BME280;11103;43.788;23.710;2023-02-28T00:17:12;147950.59;;;6.26;100.00
21877;BME280;11103;43.788;23.710;2023-02-28T00:19:37;147940.41;;;6.22;100.00
21877;BME280;11103;43.788;23.710;2023-02-28T00:22:03;147941.69;;;6.22;100.00
21877;BME280;11103;43.788;23.710;2023-02-28T00:24:28;147912.34;;;6.11;100.00
21877;BME280;11103;43.788;23.710;2023-02-28T00:26:54;147900.84;;;6.06;100.00
21877;BME280;11103;43.788;23.710;2023-02-28T00:29:19;147931.47;;;6.18;100.00
21877;BME280;11103;43.788;23.710;2023-02-28T00:31:44;147949.28;;;6.25;100.00
21877;BME280;11103;43.788;23.710;2023-02-28T00:34:10;147956.94;;;6.28;100.00
21877;BME280;11103;43.788;23.710;2023-02-28T00:36:35;147973.53;;;6.35;100.00
21877;BME280;11103;43.788;23.710;2023-02-28T00:39:01;148004.13;;;6.47;100.00
21877;BME280;11103;43.788;23.710;2023-02-28T00:41:26;147955.66;;;6.28;100.00
21877;BME280;11103;43.788;23.710;2023-02-28T00:43:51;147958.22;;;6.29;100.00
21877;BME280;11103;43.788;23.710;2023-02-28T00:46:17;147927.66;;;6.17;100.00
21877;BME280;11103;43.788;23.710;2023-02-28T00:48:42;147922.53;;;6.15;100.00
21877;BME280;11103;43.788;23.710;2023-02-28T00:51:08;147923.81;;;6.15;100.00
21877;BME280;11103;43.788;23.710;2023-02-28T00:53:33;147930.19;;;6.18;100.00
21877;BME280;11103;43.788;23.710;2023-02-28T00:55:59;147950.59;;;6.26;100.00
21877;BME280;11103;43.788;23.710;2023-02-28T00:58:25;147948.06;;;6.25;100.00
21877;BME280;11103;43.788;23.710;2023-02-28T01:00:51;147904.69;;;6.08;100.00
21877;BME280;11103;43.788;23.710;2023-02-28T01:03:18;147884.31;;;5.99;100.00
21877;BME280;11103;43.788;23.710;2023-02-28T01:05:45;147879.22;;;5.97;100.00
21877;BME280;11103;43.788;23.710;2023-02-28T01:08:11;147851.19;;;5.86;100.00
21877;BME280;11103;43.788;23.710;2023-02-28T01:10:36;147891.97;;;6.03;100.00
21877;BME280;11103;43.788;23.710;2023-02-28T01:13:02;147865.19;;;5.92;100.00
21877;BME280;11103;43.788;23.710;2023-02-28T01:15:28;147883.03;;;5.99;100.00
21877;BME280;11103;43.788;23.710;2023-02-28T01:17:53;147879.22;;;5.97;100.00
21877;BME280;11103;43.788;23.710;2023-02-28T01:20:19;147847.34;;;5.85;100.00
21877;BME280;11103;43.788;23.710;2023-02-28T01:22:44;147928.91;;;6.17;100.00
21877;BME280;11103;43.788;23.710;2023-02-28T01:25:10;147948.06;;;6.25;100.00
21877;BME280;11103;43.788;23.710;2023-02-28T01:27:35;147963.31;;;6.31;100.00
21877;BME280;11103;43.788;23.710;2023-02-28T01:30:02;147981.19;;;6.38;100.00
21877;BME280;11103;43.788;23.710;2023-02-28T01:32:27;147997.75;;;6.44;100.00
21877;BME280;11103;43.788;23.710;2023-02-28T01:34:53;148011.78;;;6.50;100.00
21877;BME280;11103;43.788;23.710;2023-02-28T01:37:18;148023.28;;;6.54;100.00
21877;BME280;11103;43.788;23.710;2023-02-28T01:39:43;148029.66;;;6.57;100.00
21877;BME280;11103;43.788;23.710;2023-02-28T01:42:09;148050.06;;;6.65;100.00
21877;BME280;11103;43.788;23.710;2023-02-28T01:44:55;148080.66;;;6.77;100.00
21877;BME280;11103;43.788;23.710;2023-02-28T01:47:22;148075.56;;;6.75;100.00
21877;BME280;11103;43.788;23.710;2023-02-28T01:49:50;148067.91;;;6.72;100.00
21877;BME280;11103;43.788;23.710;2023-02-28T01:52:17;148095.97;;;6.83;100.00
21877;BME280;11103;43.788;23.710;2023-02-28T01:54:45;148073.00;;;6.74;100.00
21877;BME280;11103;43.788;23.710;2023-02-28T01:57:17;148057.72;;;6.68;100.00
21877;BME280;11103;43.788;23.710;2023-02-28T01:59:52;148027.09;;;6.56;100.00
21877;BME280;11103;43.788;23.710;2023-02-28T02:02:21;148052.59;;;6.66;100.00
21877;BME280;11103;43.788;23.710;2023-02-28T02:04:55;148069.19;;;6.73;100.00
21877;BME280;11103;43.788;23.710;2023-02-28T02:07:23;148055.16;;;6.67;100.00
21877;BME280;11103;43.788;23.710;2023-02-28T02:10:01;148046.22;;;6.64;100.00
21877;BME280;11103;43.788;23.710;2023-02-28T02:15:32;148006.69;;;6.48;100.00
21877;BME280;11103;43.788;23.710;2023-02-28T02:18:05;148004.13;;;6.47;100.00
21877;BME280;11103;43.788;23.710;2023-02-28T02:28:46;147927.66;;;6.17;100.00
21877;BME280;11103;43.788;23.710;2023-02-28T02:31:22;147921.28;;;6.14;100.00
21877;BME280;11103;43.788;23.710;2023-02-28T02:36:38;147888.13;;;6.01;100.00
21877;BME280;11103;43.788;23.710;2023-02-28T02:39:23;147843.47;;;5.83;100.00
21877;BME280;11103;43.788;23.710;2023-02-28T02:41:54;147856.25;;;5.88;100.00
21877;BME280;11103;43.788;23.710;2023-02-28T02:47:20;147818.00;;;5.73;100.00
21877;BME280;11103;43.788;23.710;2023-02-28T02:49:51;147787.41;;;5.61;100.00
21877;BME280;11103;43.788;23.710;2023-02-28T02:52:22;147788.69;;;5.62;100.00
21877;BME280;11103;43.788;23.710;2023-02-28T02:54:48;147775.94;;;5.57;100.00
21877;BME280;11103;43.788;23.710;2023-02-28T02:57:21;147806.50;;;5.69;100.00
21877;BME280;11103;43.788;23.710;2023-02-28T02:59:49;147777.19;;;5.57;100.00
21877;BME280;11103;43.788;23.710;2023-02-28T03:02:17;147758.09;;;5.50;100.00
21877;BME280;11103;43.788;23.710;2023-02-28T03:04:48;147765.75;;;5.53;100.00
21877;BME280;11103;43.788;23.710;2023-02-28T03:07:16;147761.94;;;5.51;100.00
21877;BME280;11103;43.788;23.710;2023-02-28T03:09:50;147777.19;;;5.57;100.00
21877;BME280;11103;43.788;23.710;2023-02-28T03:12:16;147774.66;;;5.56;100.00
21877;BME280;11103;43.788;23.710;2023-02-28T03:17:44;147815.44;;;5.72;100.00
21877;BME280;11103;43.788;23.710;2023-02-28T03:20:33;147802.72;;;5.67;100.00
21877;BME280;11103;43.788;23.710;2023-02-28T03:25:54;147810.34;;;5.70;100.00
21877;BME280;11103;43.788;23.710;2023-02-28T03:28:39;147800.13;;;5.66;100.00
21877;BME280;11103;43.788;23.710;2023-02-28T03:33:46;147781.03;;;5.59;100.00
21877;BME280;11103;43.788;23.710;2023-02-28T03:36:28;147795.06;;;5.64;100.00
21877;BME280;11103;43.788;23.710;2023-02-28T03:38:59;147807.78;;;5.69;100.00
21877;BME280;11103;43.788;23.710;2023-02-28T03:41:42;147809.06;;;5.70;100.00
21877;BME280;11103;43.788;23.710;2023-02-28T03:44:15;147814.16;;;5.72;100.00
21877;BME280;11103;43.788;23.710;2023-02-28T03:46:48;147792.50;;;5.63;100.00
21877;BME280;11103;43.788;23.710;2023-02-28T03:49:28;147797.63;;;5.65;100.00
21877;BME280;11103;43.788;23.710;2023-02-28T03:51:59;147751.72;;;5.47;100.00
21877;BME280;11103;43.788;23.710;2023-02-28T03:54:31;147777.19;;;5.57;100.00
21877;BME280;11103;43.788;23.710;2023-02-28T03:57:10;147723.69;;;5.36;100.00
21877;BME280;11103;43.788;23.710;2023-02-28T03:59:42;147756.81;;;5.49;100.00
21877;BME280;11103;43.788;23.710;2023-02-28T04:02:09;147746.63;;;5.45;100.00
21877;BME280;11103;43.788;23.710;2023-02-28T04:04:35;147744.06;;;5.44;100.00
21877;BME280;11103;43.788;23.710;2023-02-28T04:07:06;147740.28;;;5.43;100.00
21877;BME280;11103;43.788;23.710;2023-02-28T04:09:32;147705.88;;;5.29;100.00
21877;BME280;11103;43.788;23.710;2023-02-28T04:11:58;147686.78;;;5.21;100.00
21877;BME280;11103;43.788;23.710;2023-02-28T04:14:24;147714.81;;;5.32;100.00
21877;BME280;11103;43.788;23.710;2023-02-28T04:16:50;147716.03;;;5.33;100.00
21877;BME280;11103;43.788;23.710;2023-02-28T04:19:18;147728.81;;;5.38;100.00
21877;BME280;11103;43.788;23.710;2023-02-28T04:21:47;147700.78;;;5.27;100.00
21877;BME280;11103;43.788;23.710;2023-02-28T04:24:22;147710.97;;;5.31;100.00
21877;BME280;11103;43.788;23.710;2023-02-28T04:26:52;147713.53;;;5.32;100.00
21877;BME280;11103;43.788;23.710;2023-02-28T04:29:29;147712.25;;;5.31;100.00
21877;BME280;11103;43.788;23.710;2023-02-28T04:31:56;147665.13;;;5.13;100.00
21877;BME280;11103;43.788;23.710;2023-02-28T04:34:26;147703.31;;;5.28;100.00
21877;BME280;11103;43.788;23.710;2023-02-28T04:36:52;147726.25;;;5.37;100.00
21877;BME280;11103;43.788;23.710;2023-02-28T04:39:20;147723.69;;;5.36;100.00
21877;BME280;11103;43.788;23.710;2023-02-28T04:41:46;147721.16;;;5.35;100.00
21877;BME280;11103;43.788;23.710;2023-02-28T04:44:11;147718.59;;;5.34;100.00
21877;BME280;11103;43.788;23.710;2023-02-28T04:46:37;147726.25;;;5.37;100.00
21877;BME280;11103;43.788;23.710;2023-02-28T04:49:02;147705.88;;;5.29;100.00
21877;BME280;11103;43.788;23.710;2023-02-28T04:51:28;147676.56;;;5.17;100.00
21877;BME280;11103;43.788;23.710;2023-02-28T04:53:54;147695.66;;;5.25;100.00
21877;BME280;11103;43.788;23.710;2023-02-28T04:56:20;147675.28;;;5.17;100.00
21877;BME280;11103;43.788;23.710;2023-02-28T04:58:46;147698.22;;;5.26;100.00
21877;BME280;11103;43.788;23.710;2023-02-28T05:01:16;147717.31;;;5.33;100.00
21877;BME280;11103;43.788;23.710;2023-02-28T05:03:43;147675.28;;;5.17;100.00
21877;BME280;11103;43.788;23.710;2023-02-28T05:06:10;147652.41;;;5.08;100.00
21877;BME280;11103;43.788;23.710;2023-02-28T05:08:35;147652.41;;;5.08;100.00
21877;BME280;11103;43.788;23.710;2023-02-28T05:11:02;147652.41;;;5.08;100.00
21877;BME280;11103;43.788;23.710;2023-02-28T05:13:28;147656.19;;;5.09;100.00
21877;BME280;11103;43.788;23.710;2023-02-28T05:15:54;147672.78;;;5.16;100.00
21877;BME280;11103;43.788;23.710;2023-02-28T05:18:19;147653.63;;;5.08;100.00
21877;BME280;11103;43.788;23.710;2023-02-28T05:20:45;147653.63;;;5.08;100.00
21877;BME280;11103;43.788;23.710;2023-02-28T05:23:12;147677.84;;;5.18;100.00
21877;BME280;11103;43.788;23.710;2023-02-28T05:25:39;147632.03;;;5.00;100.00
21877;BME280;11103;43.788;23.710;2023-02-28T05:28:05;147615.44;;;4.93;100.00
21877;BME280;11103;43.788;23.710;2023-02-28T05:30:30;147621.81;;;4.96;100.00
21877;BME280;11103;43.788;23.710;2023-02-28T05:32:57;147583.63;;;4.80;100.00
21877;BME280;11103;43.788;23.710;2023-02-28T05:35:22;147619.25;;;4.95;100.00
21877;BME280;11103;43.788;23.710;2023-02-28T05:37:48;147612.88;;;4.92;100.00
21877;BME280;11103;43.788;23.710;2023-02-28T05:40:13;147604.00;;;4.89;100.00
21877;BME280;11103;43.788;23.710;2023-02-28T05:42:41;147632.03;;;5.00;100.00
21877;BME280;11103;43.788;23.710;2023-02-28T05:45:07;147647.25;;;5.06;100.00
21877;BME280;11103;43.788;23.710;2023-02-28T05:47:34;147582.34;;;4.80;100.00
21877;BME280;11103;43.788;23.710;2023-02-28T05:49:59;147614.16;;;4.93;100.00
21877;BME280;11103;43.788;23.710;2023-02-28T05:52:26;147588.72;;;4.82;100.00
21877;BME280;11103;43.788;23.710;2023-02-28T05:54:52;147606.53;;;4.90;100.00
21877;BME280;11103;43.788;23.710;2023-02-28T05:57:18;147609.09;;;4.91;100.00
21877;BME280;11103;43.788;23.710;2023-02-28T05:59:43;147611.66;;;4.92;100.00
21877;BME280;11103;43.788;23.710;2023-02-28T06:02:12;147619.25;;;4.95;100.00
21877;BME280;11103;43.788;23.710;2023-02-28T06:04:38;147624.38;;;4.97;100.00
21877;BME280;11103;43.788;23.710;2023-02-28T06:07:06;147619.25;;;4.95;100.00
21877;BME280;11103;43.788;23.710;2023-02-28T06:09:32;147595.06;;;4.85;100.00
21877;BME280;11103;43.788;23.710;2023-02-28T06:11:59;147581.06;;;4.79;100.00
21877;BME280;11103;43.788;23.710;2023-02-28T06:14:24;147605.28;;;4.89;100.00
21877;BME280;11103;43.788;23.710;2023-02-28T06:16:50;147582.34;;;4.80;100.00
21877;BME280;11103;43.788;23.710;2023-02-28T06:19:15;147592.50;;;4.84;100.00
21877;BME280;11103;43.788;23.710;2023-02-28T06:21:41;147565.78;;;4.73;100.00
21877;BME280;11103;43.788;23.710;2023-02-28T06:24:06;147558.13;;;4.70;100.00
21877;BME280;11103;43.788;23.710;2023-02-28T06:26:32;147554.34;;;4.69;100.00
21877;BME280;11103;43.788;23.710;2023-02-28T06:28:58;147544.13;;;4.65;100.00
21877;BME280;11103;43.788;23.710;2023-02-28T06:31:23;147561.97;;;4.72;100.00
21877;BME280;11103;43.788;23.710;2023-02-28T06:33:51;147568.34;;;4.74;100.00
21877;BME280;11103;43.788;23.710;2023-02-28T06:36:17;147582.34;;;4.80;100.00
21877;BME280;11103;43.788;23.710;2023-02-28T06:38:43;147593.78;;;4.85;100.00
21877;BME280;11103;43.788;23.710;2023-02-28T06:41:09;147606.53;;;4.90;100.00
21877;BME280;11103;43.788;23.710;2023-02-28T06:43:38;147578.50;;;4.78;100.00
21877;BME280;11103;43.788;23.710;2023-02-28T06:46:06;147572.13;;;4.76;100.00
21877;BME280;11103;43.788;23.710;2023-02-28T06:48:32;147577.28;;;4.78;100.00
21877;BME280;11103;43.788;23.710;2023-02-28T06:51:02;147558.13;;;4.70;100.00
21877;BME280;11103;43.788;23.710;2023-02-28T06:53:28;147586.16;;;4.81;100.00
21877;BME280;11103;43.788;23.710;2023-02-28T06:55:53;147605.28;;;4.89;100.00
21877;BME280;11103;43.788;23.710;2023-02-28T06:58:19;147601.44;;;4.88;100.00
21877;BME280;11103;43.788;23.710;2023-02-28T07:00:45;147619.25;;;4.95;100.00
21877;BME280;11103;43.788;23.710;2023-02-28T07:03:11;147618.00;;;4.94;100.00
21877;BME280;11103;43.788;23.710;2023-02-28T07:05:38;147625.66;;;4.97;100.00
21877;BME280;11103;43.788;23.710;2023-02-28T07:08:04;147602.72;;;4.88;100.00
21877;BME280;11103;43.788;23.710;2023-02-28T07:10:32;147625.66;;;4.97;100.00
21877;BME280;11103;43.788;23.710;2023-02-28T07:12:58;147628.19;;;4.98;100.00
21877;BME280;11103;43.788;23.710;2023-02-28T07:15:24;147619.25;;;4.95;100.00
21877;BME280;11103;43.788;23.710;2023-02-28T07:17:49;147558.13;;;4.70;100.00
21877;BME280;11103;43.788;23.710;2023-02-28T07:20:15;147596.34;;;4.86;100.00
21877;BME280;11103;43.788;23.710;2023-02-28T07:22:41;147581.06;;;4.79;100.00
21877;BME280;11103;43.788;23.710;2023-02-28T07:25:08;147604.00;;;4.89;100.00
21877;BME280;11103;43.788;23.710;2023-02-28T07:27:34;147606.53;;;4.90;100.00
21877;BME280;11103;43.788;23.710;2023-02-28T07:29:59;147612.88;;;4.92;100.00
21877;BME280;11103;43.788;23.710;2023-02-28T07:32:27;147624.38;;;4.97;100.00
21877;BME280;11103;43.788;23.710;2023-02-28T07:34:53;147614.16;;;4.93;100.00
21877;BME280;11103;43.788;23.710;2023-02-28T07:37:20;147570.91;;;4.75;100.00
21877;BME280;11103;43.788;23.710;2023-02-28T07:39:45;147639.66;;;5.03;100.00
21877;BME280;11103;43.788;23.710;2023-02-28T07:42:11;147612.88;;;4.92;100.00
21877;BME280;11103;43.788;23.710;2023-02-28T07:44:40;147624.38;;;4.97;100.00
21877;BME280;11103;43.788;23.710;2023-02-28T07:47:08;147628.19;;;4.98;100.00
21877;BME280;11103;43.788;23.710;2023-02-28T07:49:37;147604.00;;;4.89;100.00
21877;BME280;11103;43.788;23.710;2023-02-28T07:52:04;147616.72;;;4.94;100.00
21877;BME280;11103;43.788;23.710;2023-02-28T07:54:30;147565.78;;;4.73;100.00
21877;BME280;11103;43.788;23.710;2023-02-28T07:56:56;147595.06;;;4.85;100.00
21877;BME280;11103;43.788;23.710;2023-02-28T07:59:21;147616.72;;;4.94;100.00
21877;BME280;11103;43.788;23.710;2023-02-28T08:01:47;147611.66;;;4.92;100.00
21877;BME280;11103;43.788;23.710;2023-02-28T08:04:16;147644.75;;;5.05;100.00
21877;BME280;11103;43.788;23.710;2023-02-28T08:06:41;147647.25;;;5.06;100.00
21877;BME280;11103;43.788;23.710;2023-02-28T08:09:07;147619.25;;;4.95;100.00
21877;BME280;11103;43.788;23.710;2023-02-28T08:11:32;147660.03;;;5.11;100.00
21877;BME280;11103;43.788;23.710;2023-02-28T08:13:58;147675.28;;;5.17;100.00
21877;BME280;11103;43.788;23.710;2023-02-28T08:16:23;147624.38;;;4.97;100.00
21877;BME280;11103;43.788;23.710;2023-02-28T08:18:50;147606.53;;;4.90;100.00
21877;BME280;11103;43.788;23.710;2023-02-28T08:21:17;147639.66;;;5.03;100.00
21877;BME280;11103;43.788;23.710;2023-02-28T08:23:43;147629.47;;;4.99;100.00
21877;BME280;11103;43.788;23.710;2023-02-28T08:26:08;147626.88;;;4.98;100.00
21877;BME280;11103;43.788;23.710;2023-02-28T08:28:33;147690.56;;;5.23;100.00
21877;BME280;11103;43.788;23.710;2023-02-28T08:30:59;147705.88;;;5.29;100.00
21877;BME280;11103;43.788;23.710;2023-02-28T08:33:26;147710.97;;;5.31;100.00
21877;BME280;11103;43.788;23.710;2023-02-28T08:35:55;147718.59;;;5.34;100.00
21877;BME280;11103;43.788;23.710;2023-02-28T08:38:22;147705.88;;;5.29;100.00
21877;BME280;11103;43.788;23.710;2023-02-28T08:40:47;147703.31;;;5.28;100.00
21877;BME280;11103;43.788;23.710;2023-02-28T08:43:12;147672.78;;;5.16;100.00
21877;BME280;11103;43.788;23.710;2023-02-28T08:45:38;147710.97;;;5.31;100.00
21877;BME280;11103;43.788;23.710;2023-02-28T08:48:04;147704.59;;;5.28;100.00
21877;BME280;11103;43.788;23.710;2023-02-28T08:50:29;147681.66;;;5.19;100.00
21877;BME280;11103;43.788;23.710;2023-02-28T08:52:54;147695.66;;;5.25;100.00
21877;BME280;11103;43.788;23.710;2023-02-28T08:55:20;147713.53;;;5.32;100.00
21877;BME280;11103;43.788;23.710;2023-02-28T08:57:45;147666.41;;;5.13;100.00
21877;BME280;11103;43.788;23.710;2023-02-28T09:00:12;147722.41;;;5.35;100.00
21877;BME280;11103;43.788;23.710;2023-02-28T09:02:39;147672.78;;;5.16;100.00
21877;BME280;11103;43.788;23.710;2023-02-28T09:05:05;147723.69;;;5.36;100.00
21877;BME280;11103;43.788;23.710;2023-02-28T09:07:30;147700.78;;;5.27;100.00
21877;BME280;11103;43.788;23.710;2023-02-28T09:09:55;147708.41;;;5.30;100.00
21877;BME280;11103;43.788;23.710;2023-02-28T09:12:24;147694.44;;;5.24;100.00
21877;BME280;11103;43.788;23.710;2023-02-28T09:14:50;147733.91;;;5.40;100.00
21877;BME280;11103;43.788;23.710;2023-02-28T09:17:16;147745.34;;;5.45;100.00
21877;BME280;11103;43.788;23.710;2023-02-28T09:19:42;147745.34;;;5.45;100.00
21877;BME280;11103;43.788;23.710;2023-02-28T09:22:08;147726.25;;;5.37;100.00
21877;BME280;11103;43.788;23.710;2023-02-28T09:24:33;147719.88;;;5.34;100.00
21877;BME280;11103;43.788;23.710;2023-02-28T09:26:59;147700.78;;;5.27;100.00
21877;BME280;11103;43.788;23.710;2023-02-28T09:29:24;147700.78;;;5.27;100.00
21877;BME280;11103;43.788;23.710;2023-02-28T09:31:50;147728.81;;;5.38;100.00
21877;BME280;11103;43.788;23.710;2023-02-28T09:34:15;147705.88;;;5.29;100.00
21877;BME280;11103;43.788;23.710;2023-02-28T09:36:42;147680.41;;;5.19;100.00
21877;BME280;11103;43.788;23.710;2023-02-28T09:39:08;147667.63;;;5.14;100.00
21877;BME280;11103;43.788;23.710;2023-02-28T09:41:45;147745.34;;;5.45;100.00
21877;BME280;11103;43.788;23.710;2023-02-28T09:47:05;147751.72;;;5.47;100.00
21877;BME280;11103;43.788;23.710;2023-02-28T09:49:44;147761.94;;;5.51;100.00
21877;BME280;11103;43.788;23.710;2023-02-28T09:52:20;147750.44;;;5.47;100.00
21877;BME280;11103;43.788;23.710;2023-02-28T09:54:46;147761.94;;;5.51;100.00
21877;BME280;11103;43.788;23.710;2023-02-28T10:05:21;147769.59;;;5.54;100.00
21877;BME280;11103;43.788;23.710;2023-02-28T10:13:00;147810.34;;;5.70;100.00
21877;BME280;11103;43.788;23.710;2023-02-28T10:15:30;147802.72;;;5.67;100.00
21877;BME280;11103;43.788;23.710;2023-02-28T10:18:03;147782.31;;;5.59;100.00
21877;BME280;11103;43.788;23.710;2023-02-28T10:20:32;147792.50;;;5.63;100.00
21877;BME280;11103;43.788;23.710;2023-02-28T10:25:37;147795.06;;;5.64;100.00
21877;BME280;11103;43.788;23.710;2023-02-28T10:28:11;147802.72;;;5.67;100.00
21877;BME280;11103;43.788;23.710;2023-02-28T10:30:41;147833.25;;;5.79;100.00
21877;BME280;11103;43.788;23.710;2023-02-28T10:33:17;147835.81;;;5.80;100.00
21877;BME280;11103;43.788;23.710;2023-02-28T10:35:44;147833.25;;;5.79;100.00
21877;BME280;11103;43.788;23.710;2023-02-28T10:38:16;147834.53;;;5.80;100.00
21877;BME280;11103;43.788;23.710;2023-02-28T10:40:42;147830.75;;;5.78;100.00
21877;BME280;11103;43.788;23.710;2023-02-28T10:45:40;147840.91;;;5.82;100.00
21877;BME280;11103;43.788;23.710;2023-02-28T10:56:22;147872.84;;;5.95;100.00
21877;BME280;11103;43.788;23.710;2023-02-28T11:01:39;147889.41;;;6.02;100.00
21877;BME280;11103;43.788;23.710;2023-02-28T11:06:59;147861.34;;;5.90;100.00
21877;BME280;11103;43.788;23.710;2023-02-28T11:11:54;147867.72;;;5.93;100.00
21877;BME280;11103;43.788;23.710;2023-02-28T11:14:28;147891.97;;;6.03;100.00
21877;BME280;11103;43.788;23.710;2023-02-28T11:16:58;147879.22;;;5.97;100.00
21877;BME280;11103;43.788;23.710;2023-02-28T11:19:38;147852.47;;;5.87;100.00
21877;BME280;11103;43.788;23.710;2023-02-28T11:22:05;147871.56;;;5.94;100.00
21877;BME280;11103;43.788;23.710;2023-02-28T11:24:35;147840.91;;;5.82;100.00
21877;BME280;11103;43.788;23.710;2023-02-28T11:27:02;147839.63;;;5.82;100.00
21877;BME280;11103;43.788;23.710;2023-02-28T11:29:30;147847.34;;;5.85;100.00
21877;BME280;11103;43.788;23.710;2023-02-28T11:34:38;147853.69;;;5.87;100.00
21877;BME280;11103;43.788;23.710;2023-02-28T11:37:05;147866.44;;;5.92;100.00
21877;BME280;11103;43.788;23.710;2023-02-28T11:39:33;147849.91;;;5.86;100.00
21877;BME280;11103;43.788;23.710;2023-02-28T11:42:09;147861.34;;;5.90;100.00
21877;BME280;11103;43.788;23.710;2023-02-28T11:53:05;147875.38;;;5.96;100.00
21877;BME280;11103;43.788;23.710;2023-02-28T11:55:37;147851.19;;;5.86;100.00
21877;BME280;11103;43.788;23.710;2023-02-28T12:06:23;147886.88;;;6.01;100.00
21877;BME280;11103;43.788;23.710;2023-02-28T12:11:44;147911.06;;;6.10;100.00
21877;BME280;11103;43.788;23.710;2023-02-28T12:22:52;147932.75;;;6.19;100.00
21877;BME280;11103;43.788;23.710;2023-02-28T12:25:37;147916.16;;;6.12;100.00
21877;BME280;11103;43.788;23.710;2023-02-28T12:28:09;147930.19;;;6.18;100.00
21877;BME280;11103;43.788;23.710;2023-02-28T12:30:37;147930.19;;;6.18;100.00
21877;BME280;11103;43.788;23.710;2023-02-28T12:33:09;147904.69;;;6.08;100.00
21877;BME280;11103;43.788;23.710;2023-02-28T12:35:47;147891.97;;;6.03;100.00
21877;BME280;11103;43.788;23.710;2023-02-28T12:38:18;147885.59;;;6.00;100.00
21877;BME280;11103;43.788;23.710;2023-02-28T12:41:00;147922.53;;;6.15;100.00
21877;BME280;11103;43.788;23.710;2023-02-28T12:43:33;147928.91;;;6.17;100.00
21877;BME280;11103;43.788;23.710;2023-02-28T12:46:02;147927.66;;;6.17;100.00
21877;BME280;11103;43.788;23.710;2023-02-28T12:48:53;147920.00;;;6.14;100.00
21877;BME280;11103;43.788;23.710;2023-02-28T12:51:22;147914.88;;;6.12;100.00
21877;BME280;11103;43.788;23.710;2023-02-28T12:57:02;147927.66;;;6.17;100.00
21877;BME280;11103;43.788;23.710;2023-02-28T12:59:51;147945.50;;;6.24;100.00
21877;BME280;11103;43.788;23.710;2023-02-28T13:02:40;147904.69;;;6.08;100.00
21877;BME280;11103;43.788;23.710;2023-02-28T13:10:47;147897.06;;;6.05;100.00
21877;BME280;11103;43.788;23.710;2023-02-28T13:13:20;147914.88;;;6.12;100.00
21877;BME280;11103;43.788;23.710;2023-02-28T13:16:00;147928.91;;;6.17;100.00
21877;BME280;11103;43.788;23.710;2023-02-28T13:18:38;147907.28;;;6.09;100.00
21877;BME280;11103;43.788;23.710;2023-02-28T13:21:09;147909.78;;;6.10;100.00
21877;BME280;11103;43.788;23.710;2023-02-28T13:26:11;147907.28;;;6.09;100.00
21877;BME280;11103;43.788;23.710;2023-02-28T13:31:22;147856.25;;;5.88;100.00
21877;BME280;11103;43.788;23.710;2023-02-28T13:36:30;147912.34;;;6.11;100.00
21877;BME280;11103;43.788;23.710;2023-02-28T13:38:58;147900.84;;;6.06;100.00
21877;BME280;11103;43.788;23.710;2023-02-28T13:46:31;147937.84;;;6.21;100.00
21877;BME280;11103;43.788;23.710;2023-02-28T13:51:52;147935.28;;;6.20;100.00
21877;BME280;11103;43.788;23.710;2023-02-28T14:05:37;147913.63;;;6.11;100.00
21877;BME280;11103;43.788;23.710;2023-02-28T14:08:18;147894.47;;;6.04;100.00
21877;BME280;11103;43.788;23.710;2023-02-28T14:10:48;147877.94;;;5.97;100.00
21877;BME280;11103;43.788;23.710;2023-02-28T14:13:42;147913.63;;;6.11;100.00
21877;BME280;11103;43.788;23.710;2023-02-28T14:16:10;147876.66;;;5.96;100.00
21877;BME280;11103;43.788;23.710;2023-02-28T14:18:42;147902.13;;;6.07;100.00
21877;BME280;11103;43.788;23.710;2023-02-28T14:21:16;147899.63;;;6.06;100.00
21877;BME280;11103;43.788;23.710;2023-02-28T14:32:27;147927.66;;;6.17;100.00
21877;BME280;11103;43.788;23.710;2023-02-28T14:35:17;147921.28;;;6.14;100.00
21877;BME280;11103;43.788;23.710;2023-02-28T14:37:46;147903.41;;;6.07;100.00
21877;BME280;11103;43.788;23.710;2023-02-28T14:40:32;147917.44;;;6.13;100.00
21877;BME280;11103;43.788;23.710;2023-02-28T14:43:00;147899.63;;;6.06;100.00
21877;BME280;11103;43.788;23.710;2023-02-28T14:45:29;147914.88;;;6.12;100.00
21877;BME280;11103;43.788;23.710;2023-02-28T14:47:56;147906.00;;;6.08;100.00
21877;BME280;11103;43.788;23.710;2023-02-28T14:50:25;147917.44;;;6.13;100.00
21877;BME280;11103;43.788;23.710;2023-02-28T14:52:55;147908.50;;;6.09;100.00
21877;BME280;11103;43.788;23.710;2023-02-28T14:55:32;147877.94;;;5.97;100.00
21877;BME280;11103;43.788;23.710;2023-02-28T14:58:01;147884.31;;;5.99;100.00
21877;BME280;11103;43.788;23.710;2023-02-28T15:00:36;147847.34;;;5.85;100.00
21877;BME280;11103;43.788;23.710;2023-02-28T15:03:35;147883.03;;;5.99;100.00
21877;BME280;11103;43.788;23.710;2023-02-28T15:08:29;147879.22;;;5.97;100.00